sensor_id;sensor_type;location;lat;lon;timestamp;P1;durP1;ratioP1;P2;durP2;ratioP2
25333;SDS011;24559;53.590;9.764;2023-08-30T00:02:07;2.03;;;1.83;;
25333;SDS011;24559;53.590;9.764;2023-08-30T00:04:34;2.03;;;1.85;;
25333;SDS011;24559;53.590;9.764;2023-08-30T00:07:00;1.90;;;1.50;;
25333;SDS011;24559;53.590;9.764;2023-08-30T00:09:26;1.65;;;1.55;;
25333;SDS011;24559;53.590;9.764;2023-08-30T00:11:52;1.50;;;1.42;;
25333;SDS011;24559;53.590;9.764;2023-08-30T00:14:19;3.15;;;1.85;;
25333;SDS011;24559;53.590;9.764;2023-08-30T00:16:45;1.60;;;1.52;;
25333;SDS011;24559;53.590;9.764;2023-08-30T00:19:11;1.58;;;1.40;;
25333;SDS011;24559;53.590;9.764;2023-08-30T00:21:37;2.25;;;1.40;;
25333;SDS011;24559;53.590;9.764;2023-08-30T00:24:03;1.73;;;1.60;;
25333;SDS011;24559;53.590;9.764;2023-08-30T00:26:29;3.05;;;2.10;;
25333;SDS011;24559;53.590;9.764;2023-08-30T00:28:55;2.00;;;1.90;;
25333;SDS011;24559;53.590;9.764;2023-08-30T00:31:22;2.90;;;1.50;;
25333;SDS011;24559;53.590;9.764;2023-08-30T00:33:48;1.67;;;1.52;;
25333;SDS011;24559;53.590;9.764;2023-08-30T00:36:14;1.35;;;1.35;;
25333;SDS011;24559;53.590;9.764;2023-08-30T00:38:42;1.52;;;1.42;;
25333;SDS011;24559;53.590;9.764;2023-08-30T00:41:08;2.63;;;1.55;;
25333;SDS011;24559;53.590;9.764;2023-08-30T00:43:34;1.70;;;1.40;;
25333;SDS011;24559;53.590;9.764;2023-08-30T00:46:00;2.25;;;1.60;;
25333;SDS011;24559;53.590;9.764;2023-08-30T00:48:26;3.97;;;1.90;;
25333;SDS011;24559;53.590;9.764;2023-08-30T00:50:53;1.75;;;1.65;;
25333;SDS011;24559;53.590;9.764;2023-08-30T00:53:19;1.73;;;1.63;;
25333;SDS011;24559;53.590;9.764;2023-08-30T00:55:45;2.00;;;1.90;;
25333;SDS011;24559;53.590;9.764;2023-08-30T00:58:11;2.08;;;1.98;;
25333;SDS011;24559;53.590;9.764;2023-08-30T01:00:38;1.83;;;1.63;;
25333;SDS011;24559;53.590;9.764;2023-08-30T01:03:05;2.03;;;1.88;;
25333;SDS011;24559;53.590;9.764;2023-08-30T01:05:32;2.80;;;1.60;;
25333;SDS011;24559;53.590;9.764;2023-08-30T01:07:58;2.70;;;1.70;;
25333;SDS011;24559;53.590;9.764;2023-08-30T01:13:12;1.70;;;1.60;;
25333;SDS011;24559;53.590;9.764;2023-08-30T01:15:39;1.50;;;1.40;;
25333;SDS011;24559;53.590;9.764;2023-08-30T01:18:06;2.05;;;1.83;;
25333;SDS011;24559;53.590;9.764;2023-08-30T01:20:34;1.90;;;1.80;;
25333;SDS011;24559;53.590;9.764;2023-08-30T01:26:11;1.83;;;1.73;;
25333;SDS011;24559;53.590;9.764;2023-08-30T01:28:39;5.85;;;1.92;;
25333;SDS011;24559;53.590;9.764;2023-08-30T01:31:06;2.05;;;1.80;;
25333;SDS011;24559;53.590;9.764;2023-08-30T01:33:34;1.67;;;1.58;;
25333;SDS011;24559;53.590;9.764;2023-08-30T01:36:01;2.88;;;1.85;;
25333;SDS011;24559;53.590;9.764;2023-08-30T01:38:31;1.70;;;1.60;;
25333;SDS011;24559;53.590;9.764;2023-08-30T01:40:57;1.60;;;1.50;;
25333;SDS011;24559;53.590;9.764;2023-08-30T01:43:25;2.42;;;1.58;;
25333;SDS011;24559;53.590;9.764;2023-08-30T01:45:51;2.80;;;1.60;;
25333;SDS011;24559;53.590;9.764;2023-08-30T01:48:21;1.75;;;1.65;;
25333;SDS011;24559;53.590;9.764;2023-08-30T01:50:48;3.40;;;1.60;;
25333;SDS011;24559;53.590;9.764;2023-08-30T01:53:14;1.83;;;1.73;;
25333;SDS011;24559;53.590;9.764;2023-08-30T01:55:41;1.77;;;1.50;;
25333;SDS011;24559;53.590;9.764;2023-08-30T01:58:08;1.80;;;1.70;;
25333;SDS011;24559;53.590;9.764;2023-08-30T02:00:35;2.10;;;1.90;;
25333;SDS011;24559;53.590;9.764;2023-08-30T02:03:11;2.13;;;2.03;;
25333;SDS011;24559;53.590;9.764;2023-08-30T02:05:39;1.83;;;1.73;;
25333;SDS011;24559;53.590;9.764;2023-08-30T02:08:14;1.75;;;1.55;;
25333;SDS011;24559;53.590;9.764;2023-08-30T02:10:45;2.10;;;2.00;;
25333;SDS011;24559;53.590;9.764;2023-08-30T02:13:13;1.77;;;1.67;;
25333;SDS011;24559;53.590;9.764;2023-08-30T02:15:39;1.83;;;1.73;;
25333;SDS011;24559;53.590;9.764;2023-08-30T02:18:07;2.03;;;1.80;;
25333;SDS011;24559;53.590;9.764;2023-08-30T02:20:34;2.70;;;2.50;;
25333;SDS011;24559;53.590;9.764;2023-08-30T02:23:00;4.57;;;2.85;;
25333;SDS011;24559;53.590;9.764;2023-08-30T02:25:26;2.40;;;2.30;;
25333;SDS011;24559;53.590;9.764;2023-08-30T02:27:53;2.80;;;2.63;;
25333;SDS011;24559;53.590;9.764;2023-08-30T02:30:19;2.45;;;2.20;;
25333;SDS011;24559;53.590;9.764;2023-08-30T02:32:45;2.40;;;2.30;;
25333;SDS011;24559;53.590;9.764;2023-08-30T02:35:11;2.40;;;2.20;;
25333;SDS011;24559;53.590;9.764;2023-08-30T02:37:37;2.00;;;1.90;;
25333;SDS011;24559;53.590;9.764;2023-08-30T02:40:05;2.70;;;2.50;;
25333;SDS011;24559;53.590;9.764;2023-08-30T02:42:31;2.65;;;2.45;;
25333;SDS011;24559;53.590;9.764;2023-08-30T02:44:58;2.58;;;2.38;;
25333;SDS011;24559;53.590;9.764;2023-08-30T02:47:24;2.58;;;2.47;;
25333;SDS011;24559;53.590;9.764;2023-08-30T02:49:50;3.90;;;2.80;;
25333;SDS011;24559;53.590;9.764;2023-08-30T02:52:17;2.42;;;2.20;;
25333;SDS011;24559;53.590;9.764;2023-08-30T02:54:43;2.50;;;2.40;;
25333;SDS011;24559;53.590;9.764;2023-08-30T02:57:09;4.03;;;2.47;;
25333;SDS011;24559;53.590;9.764;2023-08-30T02:59:35;2.75;;;2.50;;
25333;SDS011;24559;53.590;9.764;2023-08-30T03:02:05;3.38;;;3.08;;
25333;SDS011;24559;53.590;9.764;2023-08-30T03:04:31;3.08;;;2.88;;
25333;SDS011;24559;53.590;9.764;2023-08-30T03:06:57;2.72;;;2.53;;
25333;SDS011;24559;53.590;9.764;2023-08-30T03:09:26;3.45;;;2.75;;
25333;SDS011;24559;53.590;9.764;2023-08-30T03:11:53;2.97;;;2.83;;
25333;SDS011;24559;53.590;9.764;2023-08-30T03:14:19;2.95;;;2.60;;
25333;SDS011;24559;53.590;9.764;2023-08-30T03:16:45;3.22;;;2.40;;
25333;SDS011;24559;53.590;9.764;2023-08-30T03:19:12;3.28;;;2.95;;
25333;SDS011;24559;53.590;9.764;2023-08-30T03:21:39;3.17;;;2.80;;
25333;SDS011;24559;53.590;9.764;2023-08-30T03:24:06;5.45;;;3.05;;
25333;SDS011;24559;53.590;9.764;2023-08-30T03:26:34;3.92;;;3.30;;
25333;SDS011;24559;53.590;9.764;2023-08-30T03:29:01;2.97;;;2.78;;
25333;SDS011;24559;53.590;9.764;2023-08-30T03:31:28;2.90;;;2.70;;
25333;SDS011;24559;53.590;9.764;2023-08-30T03:33:54;3.97;;;3.60;;
25333;SDS011;24559;53.590;9.764;2023-08-30T03:36:21;3.50;;;3.20;;
25333;SDS011;24559;53.590;9.764;2023-08-30T03:38:47;3.95;;;3.53;;
25333;SDS011;24559;53.590;9.764;2023-08-30T03:41:13;4.43;;;4.03;;
25333;SDS011;24559;53.590;9.764;2023-08-30T03:43:42;3.92;;;3.55;;
25333;SDS011;24559;53.590;9.764;2023-08-30T03:46:08;3.40;;;3.17;;
25333;SDS011;24559;53.590;9.764;2023-08-30T03:48:36;3.30;;;3.10;;
25333;SDS011;24559;53.590;9.764;2023-08-30T03:51:03;3.28;;;3.08;;
25333;SDS011;24559;53.590;9.764;2023-08-30T03:53:29;3.85;;;3.55;;
25333;SDS011;24559;53.590;9.764;2023-08-30T03:55:55;2.78;;;2.67;;
25333;SDS011;24559;53.590;9.764;2023-08-30T03:58:22;4.15;;;3.85;;
25333;SDS011;24559;53.590;9.764;2023-08-30T04:00:49;3.53;;;3.33;;
25333;SDS011;24559;53.590;9.764;2023-08-30T04:03:15;4.13;;;3.72;;
25333;SDS011;24559;53.590;9.764;2023-08-30T04:05:41;4.32;;;3.92;;
25333;SDS011;24559;53.590;9.764;2023-08-30T04:08:07;4.70;;;4.30;;
25333;SDS011;24559;53.590;9.764;2023-08-30T04:10:37;4.68;;;4.28;;
25333;SDS011;24559;53.590;9.764;2023-08-30T04:13:04;5.13;;;4.68;;
25333;SDS011;24559;53.590;9.764;2023-08-30T04:15:37;6.07;;;5.25;;
25333;SDS011;24559;53.590;9.764;2023-08-30T04:18:03;5.15;;;4.65;;
25333;SDS011;24559;53.590;9.764;2023-08-30T04:20:30;8.10;;;6.30;;
25333;SDS011;24559;53.590;9.764;2023-08-30T04:22:57;6.45;;;5.85;;
25333;SDS011;24559;53.590;9.764;2023-08-30T04:25:26;6.25;;;5.03;;
25333;SDS011;24559;53.590;9.764;2023-08-30T04:27:52;5.97;;;5.38;;
25333;SDS011;24559;53.590;9.764;2023-08-30T04:30:19;7.20;;;5.25;;
25333;SDS011;24559;53.590;9.764;2023-08-30T04:32:45;7.80;;;6.18;;
25333;SDS011;24559;53.590;9.764;2023-08-30T04:35:11;9.30;;;6.57;;
25333;SDS011;24559;53.590;9.764;2023-08-30T04:37:38;7.70;;;7.00;;
25333;SDS011;24559;53.590;9.764;2023-08-30T04:40:06;5.68;;;5.28;;
25333;SDS011;24559;53.590;9.764;2023-08-30T04:42:34;6.93;;;6.32;;
25333;SDS011;24559;53.590;9.764;2023-08-30T04:45:01;7.35;;;6.60;;
25333;SDS011;24559;53.590;9.764;2023-08-30T04:47:28;9.23;;;7.75;;
25333;SDS011;24559;53.590;9.764;2023-08-30T04:49:55;7.85;;;7.15;;
25333;SDS011;24559;53.590;9.764;2023-08-30T04:52:22;8.40;;;7.18;;
25333;SDS011;24559;53.590;9.764;2023-08-30T04:54:48;7.63;;;6.90;;
25333;SDS011;24559;53.590;9.764;2023-08-30T04:57:15;9.10;;;7.15;;
25333;SDS011;24559;53.590;9.764;2023-08-30T04:59:45;7.13;;;6.43;;
25333;SDS011;24559;53.590;9.764;2023-08-30T05:02:12;8.02;;;7.10;;
25333;SDS011;24559;53.590;9.764;2023-08-30T05:04:47;9.88;;;6.55;;
25333;SDS011;24559;53.590;9.764;2023-08-30T05:07:13;7.55;;;6.85;;
25333;SDS011;24559;53.590;9.764;2023-08-30T05:09:39;8.60;;;7.55;;
25333;SDS011;24559;53.590;9.764;2023-08-30T05:12:06;8.07;;;7.28;;
25333;SDS011;24559;53.590;9.764;2023-08-30T05:14:33;7.45;;;6.75;;
25333;SDS011;24559;53.590;9.764;2023-08-30T05:16:59;7.97;;;7.30;;
25333;SDS011;24559;53.590;9.764;2023-08-30T05:19:26;8.70;;;7.90;;
25333;SDS011;24559;53.590;9.764;2023-08-30T05:21:52;8.20;;;7.35;;
25333;SDS011;24559;53.590;9.764;2023-08-30T05:24:20;7.07;;;6.45;;
25333;SDS011;24559;53.590;9.764;2023-08-30T05:26:46;7.47;;;6.78;;
25333;SDS011;24559;53.590;9.764;2023-08-30T05:29:14;9.88;;;8.88;;
25333;SDS011;24559;53.590;9.764;2023-08-30T05:31:41;9.32;;;8.52;;
25333;SDS011;24559;53.590;9.764;2023-08-30T05:34:26;10.23;;;9.23;;
25333;SDS011;24559;53.590;9.764;2023-08-30T05:37:13;10.88;;;7.70;;
25333;SDS011;24559;53.590;9.764;2023-08-30T05:39:58;11.68;;;9.05;;
25333;SDS011;24559;53.590;9.764;2023-08-30T05:42:24;12.95;;;10.27;;
25333;SDS011;24559;53.590;9.764;2023-08-30T05:44:50;10.15;;;9.10;;
25333;SDS011;24559;53.590;9.764;2023-08-30T05:47:17;9.70;;;8.85;;
25333;SDS011;24559;53.590;9.764;2023-08-30T05:49:44;12.10;;;9.65;;
25333;SDS011;24559;53.590;9.764;2023-08-30T05:52:10;10.32;;;9.05;;
25333;SDS011;24559;53.590;9.764;2023-08-30T05:54:36;9.80;;;8.82;;
25333;SDS011;24559;53.590;9.764;2023-08-30T05:57:02;9.00;;;8.15;;
25333;SDS011;24559;53.590;9.764;2023-08-30T05:59:30;9.68;;;8.68;;
25333;SDS011;24559;53.590;9.764;2023-08-30T06:01:56;9.55;;;8.65;;
25333;SDS011;24559;53.590;9.764;2023-08-30T06:04:22;8.75;;;7.95;;
25333;SDS011;24559;53.590;9.764;2023-08-30T06:06:48;9.02;;;8.20;;
25333;SDS011;24559;53.590;9.764;2023-08-30T06:09:14;9.95;;;9.10;;
25333;SDS011;24559;53.590;9.764;2023-08-30T06:11:40;8.63;;;7.72;;
25333;SDS011;24559;53.590;9.764;2023-08-30T06:14:07;9.43;;;8.05;;
25333;SDS011;24559;53.590;9.764;2023-08-30T06:16:33;8.85;;;7.18;;
25333;SDS011;24559;53.590;9.764;2023-08-30T06:18:59;8.70;;;8.00;;
25333;SDS011;24559;53.590;9.764;2023-08-30T06:21:25;7.78;;;7.05;;
25333;SDS011;24559;53.590;9.764;2023-08-30T06:23:51;8.70;;;8.05;;
25333;SDS011;24559;53.590;9.764;2023-08-30T06:26:18;10.02;;;8.32;;
25333;SDS011;24559;53.590;9.764;2023-08-30T06:28:44;8.43;;;7.72;;
25333;SDS011;24559;53.590;9.764;2023-08-30T06:31:10;8.48;;;7.68;;
25333;SDS011;24559;53.590;9.764;2023-08-30T06:33:36;8.15;;;7.35;;
25333;SDS011;24559;53.590;9.764;2023-08-30T06:36:05;10.32;;;7.75;;
25333;SDS011;24559;53.590;9.764;2023-08-30T06:38:31;9.20;;;8.15;;
25333;SDS011;24559;53.590;9.764;2023-08-30T06:40:57;8.70;;;7.82;;
25333;SDS011;24559;53.590;9.764;2023-08-30T06:43:23;8.80;;;7.90;;
25333;SDS011;24559;53.590;9.764;2023-08-30T06:45:50;7.82;;;7.13;;
25333;SDS011;24559;53.590;9.764;2023-08-30T06:48:18;8.05;;;7.45;;
25333;SDS011;24559;53.590;9.764;2023-08-30T06:50:44;8.43;;;7.63;;
25333;SDS011;24559;53.590;9.764;2023-08-30T06:53:10;9.30;;;8.40;;
25333;SDS011;24559;53.590;9.764;2023-08-30T06:55:36;8.43;;;7.72;;
25333;SDS011;24559;53.590;9.764;2023-08-30T06:58:02;9.75;;;8.75;;
25333;SDS011;24559;53.590;9.764;2023-08-30T07:00:28;8.30;;;7.65;;
25333;SDS011;24559;53.590;9.764;2023-08-30T07:02:54;9.43;;;8.52;;
25333;SDS011;24559;53.590;9.764;2023-08-30T07:05:22;9.05;;;8.15;;
25333;SDS011;24559;53.590;9.764;2023-08-30T07:07:48;10.10;;;8.23;;
25333;SDS011;24559;53.590;9.764;2023-08-30T07:10:14;9.43;;;8.63;;
25333;SDS011;24559;53.590;9.764;2023-08-30T07:12:40;8.20;;;7.40;;
25333;SDS011;24559;53.590;9.764;2023-08-30T07:15:06;9.35;;;8.45;;
25333;SDS011;24559;53.590;9.764;2023-08-30T07:17:33;8.93;;;8.18;;
25333;SDS011;24559;53.590;9.764;2023-08-30T07:19:59;9.05;;;8.13;;
25333;SDS011;24559;53.590;9.764;2023-08-30T07:22:26;8.68;;;7.97;;
25333;SDS011;24559;53.590;9.764;2023-08-30T07:24:52;8.50;;;7.80;;
25333;SDS011;24559;53.590;9.764;2023-08-30T07:27:18;9.45;;;8.52;;
25333;SDS011;24559;53.590;9.764;2023-08-30T07:29:44;8.50;;;7.78;;
25333;SDS011;24559;53.590;9.764;2023-08-30T07:32:10;10.18;;;8.52;;
25333;SDS011;24559;53.590;9.764;2023-08-30T07:34:36;9.43;;;8.57;;
25333;SDS011;24559;53.590;9.764;2023-08-30T07:37:02;11.00;;;10.00;;
25333;SDS011;24559;53.590;9.764;2023-08-30T07:39:28;11.32;;;9.07;;
25333;SDS011;24559;53.590;9.764;2023-08-30T07:41:54;10.50;;;8.65;;
25333;SDS011;24559;53.590;9.764;2023-08-30T07:44:21;9.57;;;8.77;;
25333;SDS011;24559;53.590;9.764;2023-08-30T07:46:47;9.32;;;8.25;;
25333;SDS011;24559;53.590;9.764;2023-08-30T07:49:13;9.05;;;8.15;;
25333;SDS011;24559;53.590;9.764;2023-08-30T07:51:39;13.18;;;8.32;;
25333;SDS011;24559;53.590;9.764;2023-08-30T07:54:05;11.23;;;10.00;;
25333;SDS011;24559;53.590;9.764;2023-08-30T07:56:31;10.45;;;9.52;;
25333;SDS011;24559;53.590;9.764;2023-08-30T07:58:57;9.38;;;8.40;;
25333;SDS011;24559;53.590;9.764;2023-08-30T08:01:23;8.38;;;7.68;;
25333;SDS011;24559;53.590;9.764;2023-08-30T08:03:49;10.30;;;9.30;;
25333;SDS011;24559;53.590;9.764;2023-08-30T08:06:15;10.18;;;8.25;;
25333;SDS011;24559;53.590;9.764;2023-08-30T08:08:41;9.20;;;8.30;;
25333;SDS011;24559;53.590;9.764;2023-08-30T08:11:09;8.73;;;8.00;;
25333;SDS011;24559;53.590;9.764;2023-08-30T08:13:35;9.90;;;9.05;;
25333;SDS011;24559;53.590;9.764;2023-08-30T08:16:02;10.90;;;9.38;;
25333;SDS011;24559;53.590;9.764;2023-08-30T08:18:28;9.10;;;8.30;;
25333;SDS011;24559;53.590;9.764;2023-08-30T08:20:55;8.80;;;8.10;;
25333;SDS011;24559;53.590;9.764;2023-08-30T08:23:21;11.43;;;7.93;;
25333;SDS011;24559;53.590;9.764;2023-08-30T08:25:47;8.82;;;7.93;;
25333;SDS011;24559;53.590;9.764;2023-08-30T08:28:13;9.85;;;8.25;;
25333;SDS011;24559;53.590;9.764;2023-08-30T08:30:39;9.00;;;8.20;;
25333;SDS011;24559;53.590;9.764;2023-08-30T08:33:07;7.68;;;6.68;;
25333;SDS011;24559;53.590;9.764;2023-08-30T08:35:33;9.00;;;7.90;;
25333;SDS011;24559;53.590;9.764;2023-08-30T08:37:59;9.10;;;8.13;;
25333;SDS011;24559;53.590;9.764;2023-08-30T08:40:25;8.48;;;7.28;;
25333;SDS011;24559;53.590;9.764;2023-08-30T08:42:51;8.80;;;7.90;;
25333;SDS011;24559;53.590;9.764;2023-08-30T08:45:20;7.72;;;7.00;;
25333;SDS011;24559;53.590;9.764;2023-08-30T08:47:47;7.82;;;6.95;;
25333;SDS011;24559;53.590;9.764;2023-08-30T08:50:13;7.63;;;6.15;;
25333;SDS011;24559;53.590;9.764;2023-08-30T08:52:40;6.50;;;6.00;;
25333;SDS011;24559;53.590;9.764;2023-08-30T08:55:06;6.25;;;5.85;;
25333;SDS011;24559;53.590;9.764;2023-08-30T08:57:32;6.93;;;6.22;;
25333;SDS011;24559;53.590;9.764;2023-08-30T08:59:58;6.05;;;5.65;;
25333;SDS011;24559;53.590;9.764;2023-08-30T09:02:24;6.40;;;5.65;;
25333;SDS011;24559;53.590;9.764;2023-08-30T09:04:51;8.23;;;5.32;;
25333;SDS011;24559;53.590;9.764;2023-08-30T09:07:18;5.05;;;4.57;;
25333;SDS011;24559;53.590;9.764;2023-08-30T09:09:44;5.53;;;5.00;;
25333;SDS011;24559;53.590;9.764;2023-08-30T09:12:12;4.57;;;4.25;;
25333;SDS011;24559;53.590;9.764;2023-08-30T09:14:38;5.60;;;5.20;;
25333;SDS011;24559;53.590;9.764;2023-08-30T09:17:04;4.72;;;4.28;;
25333;SDS011;24559;53.590;9.764;2023-08-30T09:19:30;4.72;;;4.30;;
25333;SDS011;24559;53.590;9.764;2023-08-30T09:21:59;5.28;;;4.88;;
25333;SDS011;24559;53.590;9.764;2023-08-30T09:24:25;12.43;;;5.10;;
25333;SDS011;24559;53.590;9.764;2023-08-30T09:26:55;6.38;;;5.03;;
25333;SDS011;24559;53.590;9.764;2023-08-30T09:29:21;6.47;;;5.40;;
25333;SDS011;24559;53.590;9.764;2023-08-30T09:31:51;8.95;;;4.75;;
25333;SDS011;24559;53.590;9.764;2023-08-30T09:34:24;5.45;;;4.60;;
25333;SDS011;24559;53.590;9.764;2023-08-30T09:36:50;4.25;;;3.63;;
25333;SDS011;24559;53.590;9.764;2023-08-30T09:39:17;5.82;;;5.22;;
25333;SDS011;24559;53.590;9.764;2023-08-30T09:41:44;7.07;;;5.80;;
25333;SDS011;24559;53.590;9.764;2023-08-30T09:44:10;6.22;;;5.55;;
25333;SDS011;24559;53.590;9.764;2023-08-30T09:49:12;6.07;;;5.28;;
25333;SDS011;24559;53.590;9.764;2023-08-30T09:51:39;5.60;;;4.90;;
25333;SDS011;24559;53.590;9.764;2023-08-30T09:54:10;6.05;;;4.90;;
25333;SDS011;24559;53.590;9.764;2023-08-30T09:56:40;5.03;;;4.38;;
25333;SDS011;24559;53.590;9.764;2023-08-30T09:59:07;6.03;;;5.38;;
25333;SDS011;24559;53.590;9.764;2023-08-30T10:01:35;5.55;;;4.85;;
25333;SDS011;24559;53.590;9.764;2023-08-30T10:04:01;4.32;;;3.90;;
25333;SDS011;24559;53.590;9.764;2023-08-30T10:06:29;5.72;;;4.05;;
25333;SDS011;24559;53.590;9.764;2023-08-30T10:08:55;3.65;;;3.42;;
25333;SDS011;24559;53.590;9.764;2023-08-30T10:11:23;5.97;;;5.38;;
25333;SDS011;24559;53.590;9.764;2023-08-30T10:13:51;4.65;;;4.25;;
25333;SDS011;24559;53.590;9.764;2023-08-30T10:16:20;7.78;;;5.60;;
25333;SDS011;24559;53.590;9.764;2023-08-30T10:18:52;5.70;;;5.20;;
25333;SDS011;24559;53.590;9.764;2023-08-30T10:21:20;5.40;;;4.90;;
25333;SDS011;24559;53.590;9.764;2023-08-30T10:23:47;5.15;;;4.07;;
25333;SDS011;24559;53.590;9.764;2023-08-30T10:26:15;5.57;;;5.07;;
25333;SDS011;24559;53.590;9.764;2023-08-30T10:28:42;5.40;;;4.00;;
25333;SDS011;24559;53.590;9.764;2023-08-30T10:31:09;4.63;;;4.30;;
25333;SDS011;24559;53.590;9.764;2023-08-30T10:33:50;5.05;;;4.65;;
25333;SDS011;24559;53.590;9.764;2023-08-30T10:36:25;7.05;;;4.05;;
25333;SDS011;24559;53.590;9.764;2023-08-30T10:38:51;4.35;;;3.80;;
25333;SDS011;24559;53.590;9.764;2023-08-30T10:41:22;4.70;;;4.30;;
25333;SDS011;24559;53.590;9.764;2023-08-30T10:43:51;5.25;;;3.97;;
25333;SDS011;24559;53.590;9.764;2023-08-30T10:46:28;4.78;;;4.38;;
25333;SDS011;24559;53.590;9.764;2023-08-30T10:48:55;4.57;;;4.00;;
25333;SDS011;24559;53.590;9.764;2023-08-30T10:51:37;4.80;;;4.40;;
25333;SDS011;24559;53.590;9.764;2023-08-30T10:54:16;5.15;;;4.65;;
25333;SDS011;24559;53.590;9.764;2023-08-30T10:59:18;4.15;;;3.85;;
25333;SDS011;24559;53.590;9.764;2023-08-30T11:01:45;6.75;;;5.38;;
25333;SDS011;24559;53.590;9.764;2023-08-30T11:04:15;5.18;;;4.60;;
25333;SDS011;24559;53.590;9.764;2023-08-30T11:06:45;7.07;;;5.10;;
25333;SDS011;24559;53.590;9.764;2023-08-30T11:09:12;4.85;;;4.20;;
25333;SDS011;24559;53.590;9.764;2023-08-30T11:11:38;8.35;;;4.65;;
25333;SDS011;24559;53.590;9.764;2023-08-30T11:14:08;4.78;;;4.32;;
25333;SDS011;24559;53.590;9.764;2023-08-30T11:16:34;5.90;;;5.40;;
25333;SDS011;24559;53.590;9.764;2023-08-30T11:19:01;5.10;;;4.60;;
25333;SDS011;24559;53.590;9.764;2023-08-30T11:21:29;5.53;;;4.25;;
25333;SDS011;24559;53.590;9.764;2023-08-30T11:23:55;4.68;;;4.30;;
25333;SDS011;24559;53.590;9.764;2023-08-30T11:26:21;5.20;;;4.75;;
25333;SDS011;24559;53.590;9.764;2023-08-30T11:28:47;6.72;;;4.82;;
25333;SDS011;24559;53.590;9.764;2023-08-30T11:31:23;8.15;;;4.80;;
25333;SDS011;24559;53.590;9.764;2023-08-30T11:33:53;4.60;;;4.18;;
25333;SDS011;24559;53.590;9.764;2023-08-30T11:36:21;6.72;;;5.45;;
25333;SDS011;24559;53.590;9.764;2023-08-30T11:38:47;6.07;;;4.50;;
25333;SDS011;24559;53.590;9.764;2023-08-30T11:41:13;4.05;;;3.67;;
25333;SDS011;24559;53.590;9.764;2023-08-30T11:43:40;4.55;;;4.13;;
25333;SDS011;24559;53.590;9.764;2023-08-30T11:46:06;6.65;;;5.75;;
25333;SDS011;24559;53.590;9.764;2023-08-30T11:48:33;4.43;;;4.07;;
25333;SDS011;24559;53.590;9.764;2023-08-30T11:51:00;6.07;;;5.45;;
25333;SDS011;24559;53.590;9.764;2023-08-30T11:53:26;7.35;;;5.13;;
25333;SDS011;24559;53.590;9.764;2023-08-30T11:55:53;7.63;;;5.30;;
25333;SDS011;24559;53.590;9.764;2023-08-30T11:58:19;6.20;;;5.13;;
25333;SDS011;24559;53.590;9.764;2023-08-30T12:00:45;5.30;;;4.78;;
25333;SDS011;24559;53.590;9.764;2023-08-30T12:03:15;4.60;;;4.20;;
25333;SDS011;24559;53.590;9.764;2023-08-30T12:05:48;7.78;;;7.15;;
25333;SDS011;24559;53.590;9.764;2023-08-30T12:08:21;10.05;;;6.28;;
25333;SDS011;24559;53.590;9.764;2023-08-30T12:10:49;6.80;;;6.03;;
25333;SDS011;24559;53.590;9.764;2023-08-30T12:13:22;8.10;;;5.95;;
25333;SDS011;24559;53.590;9.764;2023-08-30T12:15:48;7.40;;;5.72;;
25333;SDS011;24559;53.590;9.764;2023-08-30T12:18:14;7.00;;;5.85;;
25333;SDS011;24559;53.590;9.764;2023-08-30T12:20:50;7.63;;;6.15;;
25333;SDS011;24559;53.590;9.764;2023-08-30T12:23:23;6.43;;;5.78;;
25333;SDS011;24559;53.590;9.764;2023-08-30T12:26:03;5.80;;;5.30;;
25333;SDS011;24559;53.590;9.764;2023-08-30T12:28:29;5.85;;;5.35;;
25333;SDS011;24559;53.590;9.764;2023-08-30T12:30:55;8.23;;;5.53;;
25333;SDS011;24559;53.590;9.764;2023-08-30T12:33:22;5.63;;;4.63;;
25333;SDS011;24559;53.590;9.764;2023-08-30T12:35:48;6.25;;;4.90;;
25333;SDS011;24559;53.590;9.764;2023-08-30T12:38:14;6.75;;;5.95;;
25333;SDS011;24559;53.590;9.764;2023-08-30T12:40:47;5.07;;;4.65;;
25333;SDS011;24559;53.590;9.764;2023-08-30T12:43:14;6.88;;;5.82;;
25333;SDS011;24559;53.590;9.764;2023-08-30T12:45:40;4.80;;;4.28;;
25333;SDS011;24559;53.590;9.764;2023-08-30T12:48:07;5.60;;;5.20;;
25333;SDS011;24559;53.590;9.764;2023-08-30T12:50:34;5.45;;;4.93;;
25333;SDS011;24559;53.590;9.764;2023-08-30T12:53:01;12.77;;;5.45;;
25333;SDS011;24559;53.590;9.764;2023-08-30T12:55:27;5.43;;;4.95;;
25333;SDS011;24559;53.590;9.764;2023-08-30T12:57:53;5.13;;;4.55;;
25333;SDS011;24559;53.590;9.764;2023-08-30T13:00:19;4.75;;;4.00;;
25333;SDS011;24559;53.590;9.764;2023-08-30T13:02:45;7.25;;;5.18;;
25333;SDS011;24559;53.590;9.764;2023-08-30T13:05:11;4.55;;;3.80;;
25333;SDS011;24559;53.590;9.764;2023-08-30T13:07:37;5.82;;;4.47;;
25333;SDS011;24559;53.590;9.764;2023-08-30T13:10:04;4.82;;;4.43;;
25333;SDS011;24559;53.590;9.764;2023-08-30T13:12:31;5.70;;;5.22;;
25333;SDS011;24559;53.590;9.764;2023-08-30T13:14:57;5.43;;;4.38;;
25333;SDS011;24559;53.590;9.764;2023-08-30T13:17:23;6.50;;;4.28;;
25333;SDS011;24559;53.590;9.764;2023-08-30T13:19:49;4.80;;;4.30;;
25333;SDS011;24559;53.590;9.764;2023-08-30T13:22:16;3.78;;;3.47;;
25333;SDS011;24559;53.590;9.764;2023-08-30T13:24:43;3.92;;;3.63;;
25333;SDS011;24559;53.590;9.764;2023-08-30T13:27:09;4.32;;;3.92;;
25333;SDS011;24559;53.590;9.764;2023-08-30T13:29:36;4.25;;;3.53;;
25333;SDS011;24559;53.590;9.764;2023-08-30T13:32:02;3.90;;;3.53;;
25333;SDS011;24559;53.590;9.764;2023-08-30T13:34:28;4.45;;;3.42;;
25333;SDS011;24559;53.590;9.764;2023-08-30T13:36:54;3.88;;;3.60;;
25333;SDS011;24559;53.590;9.764;2023-08-30T13:39:20;3.30;;;3.00;;
25333;SDS011;24559;53.590;9.764;2023-08-30T13:41:47;4.63;;;4.22;;
25333;SDS011;24559;53.590;9.764;2023-08-30T13:44:13;4.47;;;3.05;;
25333;SDS011;24559;53.590;9.764;2023-08-30T13:46:39;4.22;;;3.30;;
25333;SDS011;24559;53.590;9.764;2023-08-30T13:49:05;2.95;;;2.75;;
25333;SDS011;24559;53.590;9.764;2023-08-30T13:51:32;3.67;;;3.47;;
25333;SDS011;24559;53.590;9.764;2023-08-30T13:53:58;4.00;;;3.58;;
25333;SDS011;24559;53.590;9.764;2023-08-30T13:56:24;4.05;;;3.30;;
25333;SDS011;24559;53.590;9.764;2023-08-30T13:58:50;3.53;;;2.72;;
25333;SDS011;24559;53.590;9.764;2023-08-30T14:01:16;3.50;;;3.30;;
25333;SDS011;24559;53.590;9.764;2023-08-30T14:03:42;3.95;;;3.58;;
25333;SDS011;24559;53.590;9.764;2023-08-30T14:06:09;4.75;;;3.30;;
25333;SDS011;24559;53.590;9.764;2023-08-30T14:08:35;4.78;;;3.30;;
25333;SDS011;24559;53.590;9.764;2023-08-30T14:11:01;4.22;;;3.10;;
25333;SDS011;24559;53.590;9.764;2023-08-30T14:13:28;3.70;;;3.35;;
25333;SDS011;24559;53.590;9.764;2023-08-30T14:15:58;3.83;;;3.38;;
25333;SDS011;24559;53.590;9.764;2023-08-30T14:18:25;4.40;;;3.47;;
25333;SDS011;24559;53.590;9.764;2023-08-30T14:20:51;4.70;;;3.05;;
25333;SDS011;24559;53.590;9.764;2023-08-30T14:23:21;3.45;;;3.15;;
25333;SDS011;24559;53.590;9.764;2023-08-30T14:25:54;4.35;;;3.95;;
25333;SDS011;24559;53.590;9.764;2023-08-30T14:28:20;3.65;;;3.10;;
25333;SDS011;24559;53.590;9.764;2023-08-30T14:30:46;4.00;;;3.60;;
25333;SDS011;24559;53.590;9.764;2023-08-30T14:33:12;3.88;;;3.50;;
25333;SDS011;24559;53.590;9.764;2023-08-30T14:35:42;4.90;;;3.40;;
25333;SDS011;24559;53.590;9.764;2023-08-30T14:38:08;5.35;;;3.45;;
25333;SDS011;24559;53.590;9.764;2023-08-30T14:40:34;4.20;;;3.90;;
25333;SDS011;24559;53.590;9.764;2023-08-30T14:43:04;3.42;;;3.13;;
25333;SDS011;24559;53.590;9.764;2023-08-30T14:45:31;3.28;;;3.08;;
25333;SDS011;24559;53.590;9.764;2023-08-30T14:47:57;4.10;;;3.75;;
25333;SDS011;24559;53.590;9.764;2023-08-30T14:50:23;3.97;;;3.60;;
25333;SDS011;24559;53.590;9.764;2023-08-30T14:52:49;4.53;;;3.10;;
25333;SDS011;24559;53.590;9.764;2023-08-30T14:55:17;5.82;;;3.47;;
25333;SDS011;24559;53.590;9.764;2023-08-30T14:57:43;5.47;;;3.78;;